sensor_id;sensor_type;location;lat;lon;timestamp;temperature;humidity
27940;DHT22;15275;51.716;14.324;2023-01-24T00:00:43;4.90;85.40
27940;DHT22;15275;51.716;14.324;2023-01-24T00:03:09;4.80;85.50
27940;DHT22;15275;51.716;14.324;2023-01-24T00:05:41;4.80;85.50
27940;DHT22;15275;51.716;14.324;2023-01-24T00:08:10;4.80;85.60
27940;DHT22;15275;51.716;14.324;2023-01-24T00:10:38;4.80;85.60
27940;DHT22;15275;51.716;14.324;2023-01-24T00:13:05;4.80;85.50
27940;DHT22;15275;51.716;14.324;2023-01-24T00:15:31;4.80;85.50
27940;DHT22;15275;51.716;14.324;2023-01-24T00:17:58;4.80;85.50
27940;DHT22;15275;51.716;14.324;2023-01-24T00:20:24;4.80;85.50
27940;DHT22;15275;51.716;14.324;2023-01-24T00:22:50;4.80;85.50
27940;DHT22;15275;51.716;14.324;2023-01-24T00:25:16;4.80;85.60
27940;DHT22;15275;51.716;14.324;2023-01-24T00:27:42;4.80;85.60
27940;DHT22;15275;51.716;14.324;2023-01-24T00:30:08;4.80;85.50
27940;DHT22;15275;51.716;14.324;2023-01-24T00:32:35;4.80;85.60
27940;DHT22;15275;51.716;14.324;2023-01-24T00:35:00;4.80;85.60
27940;DHT22;15275;51.716;14.324;2023-01-24T00:37:26;4.80;85.60
27940;DHT22;15275;51.716;14.324;2023-01-24T00:39:52;4.80;85.70
27940;DHT22;15275;51.716;14.324;2023-01-24T00:42:18;4.80;85.80
27940;DHT22;15275;51.716;14.324;2023-01-24T00:44:44;4.80;85.70
27940;DHT22;15275;51.716;14.324;2023-01-24T00:47:10;4.80;85.70
27940;DHT22;15275;51.716;14.324;2023-01-24T00:49:36;4.80;85.70
27940;DHT22;15275;51.716;14.324;2023-01-24T00:52:02;4.80;85.70
27940;DHT22;15275;51.716;14.324;2023-01-24T00:54:28;4.80;85.70
27940;DHT22;15275;51.716;14.324;2023-01-24T00:56:54;4.80;85.70
27940;DHT22;15275;51.716;14.324;2023-01-24T00:59:19;4.80;85.70
27940;DHT22;15275;51.716;14.324;2023-01-24T01:01:45;4.80;85.80
27940;DHT22;15275;51.716;14.324;2023-01-24T01:04:11;4.80;85.80
27940;DHT22;15275;51.716;14.324;2023-01-24T01:06:37;4.80;85.90
27940;DHT22;15275;51.716;14.324;2023-01-24T01:09:03;4.80;86.00
27940;DHT22;15275;51.716;14.324;2023-01-24T01:11:30;4.90;86.00
27940;DHT22;15275;51.716;14.324;2023-01-24T01:13:56;4.90;85.90
27940;DHT22;15275;51.716;14.324;2023-01-24T01:16:23;4.90;85.80
27940;DHT22;15275;51.716;14.324;2023-01-24T01:18:53;4.90;85.70
27940;DHT22;15275;51.716;14.324;2023-01-24T01:21:21;4.90;85.70
27940;DHT22;15275;51.716;14.324;2023-01-24T01:23:47;4.90;85.60
27940;DHT22;15275;51.716;14.324;2023-01-24T01:26:16;4.90;85.60
27940;DHT22;15275;51.716;14.324;2023-01-24T01:28:44;4.90;85.60
27940;DHT22;15275;51.716;14.324;2023-01-24T01:31:11;4.90;85.50
27940;DHT22;15275;51.716;14.324;2023-01-24T01:33:37;4.90;85.60
27940;DHT22;15275;51.716;14.324;2023-01-24T01:36:03;4.90;85.60
27940;DHT22;15275;51.716;14.324;2023-01-24T01:38:29;4.90;85.60
27940;DHT22;15275;51.716;14.324;2023-01-24T01:40:56;4.90;85.60
27940;DHT22;15275;51.716;14.324;2023-01-24T01:43:25;4.90;85.60
27940;DHT22;15275;51.716;14.324;2023-01-24T01:45:54;4.90;85.60
27940;DHT22;15275;51.716;14.324;2023-01-24T01:48:49;4.90;85.60
27940;DHT22;15275;51.716;14.324;2023-01-24T01:51:23;4.90;85.40
27940;DHT22;15275;51.716;14.324;2023-01-24T01:53:55;4.90;85.50
27940;DHT22;15275;51.716;14.324;2023-01-24T01:59:14;4.90;85.50
27940;DHT22;15275;51.716;14.324;2023-01-24T02:01:44;4.90;85.50
27940;DHT22;15275;51.716;14.324;2023-01-24T02:04:15;4.90;85.30
27940;DHT22;15275;51.716;14.324;2023-01-24T02:06:54;4.80;85.40
27940;DHT22;15275;51.716;14.324;2023-01-24T02:09:27;4.80;85.50
27940;DHT22;15275;51.716;14.324;2023-01-24T02:11:59;4.80;85.60
27940;DHT22;15275;51.716;14.324;2023-01-24T02:14:27;4.80;85.70
27940;DHT22;15275;51.716;14.324;2023-01-24T02:17:12;4.80;85.50
27940;DHT22;15275;51.716;14.324;2023-01-24T02:20:03;4.80;85.50
27940;DHT22;15275;51.716;14.324;2023-01-24T02:25:58;4.80;85.70
27940;DHT22;15275;51.716;14.324;2023-01-24T02:28:27;4.80;85.60
27940;DHT22;15275;51.716;14.324;2023-01-24T02:30:56;4.70;85.60
27940;DHT22;15275;51.716;14.324;2023-01-24T02:33:23;4.80;85.80
27940;DHT22;15275;51.716;14.324;2023-01-24T02:35:49;4.70;85.80
27940;DHT22;15275;51.716;14.324;2023-01-24T02:38:26;4.70;85.90
27940;DHT22;15275;51.716;14.324;2023-01-24T02:40:56;4.80;86.10
27940;DHT22;15275;51.716;14.324;2023-01-24T02:43:30;4.80;85.90
27940;DHT22;15275;51.716;14.324;2023-01-24T02:45:56;4.80;85.80
27940;DHT22;15275;51.716;14.324;2023-01-24T02:48:22;4.80;85.80
27940;DHT22;15275;51.716;14.324;2023-01-24T02:50:48;4.80;85.80
27940;DHT22;15275;51.716;14.324;2023-01-24T02:53:32;4.80;85.80
27940;DHT22;15275;51.716;14.324;2023-01-24T02:56:01;4.80;85.80
27940;DHT22;15275;51.716;14.324;2023-01-24T02:58:50;4.80;85.90
27940;DHT22;15275;51.716;14.324;2023-01-24T03:01:16;4.80;85.70
27940;DHT22;15275;51.716;14.324;2023-01-24T03:03:46;4.80;85.70
27940;DHT22;15275;51.716;14.324;2023-01-24T03:06:13;4.80;85.80
27940;DHT22;15275;51.716;14.324;2023-01-24T03:08:40;4.80;85.70
27940;DHT22;15275;51.716;14.324;2023-01-24T03:11:07;4.80;85.60
27940;DHT22;15275;51.716;14.324;2023-01-24T03:13:34;4.80;85.70
27940;DHT22;15275;51.716;14.324;2023-01-24T03:16:19;4.80;85.60
27940;DHT22;15275;51.716;14.324;2023-01-24T03:19:05;4.80;85.80
27940;DHT22;15275;51.716;14.324;2023-01-24T03:21:49;4.80;85.90
27940;DHT22;15275;51.716;14.324;2023-01-24T03:24:34;4.80;85.90
27940;DHT22;15275;51.716;14.324;2023-01-24T03:27:19;4.80;86.00
27940;DHT22;15275;51.716;14.324;2023-01-24T03:30:05;4.80;86.00
27940;DHT22;15275;51.716;14.324;2023-01-24T03:32:50;4.80;86.00
27940;DHT22;15275;51.716;14.324;2023-01-24T03:35:35;4.80;86.00
27940;DHT22;15275;51.716;14.324;2023-01-24T03:38:01;4.80;85.90
27940;DHT22;15275;51.716;14.324;2023-01-24T03:40:46;4.80;85.90
27940;DHT22;15275;51.716;14.324;2023-01-24T03:43:11;4.80;85.80
27940;DHT22;15275;51.716;14.324;2023-01-24T03:45:39;4.80;85.90
27940;DHT22;15275;51.716;14.324;2023-01-24T03:48:07;4.80;85.70
27940;DHT22;15275;51.716;14.324;2023-01-24T03:50:42;4.80;85.70
27940;DHT22;15275;51.716;14.324;2023-01-24T03:53:29;4.80;85.70
27940;DHT22;15275;51.716;14.324;2023-01-24T03:56:00;4.80;85.60
27940;DHT22;15275;51.716;14.324;2023-01-24T03:58:28;4.80;85.80
27940;DHT22;15275;51.716;14.324;2023-01-24T04:00:55;4.80;85.80
27940;DHT22;15275;51.716;14.324;2023-01-24T04:03:21;4.80;85.80
27940;DHT22;15275;51.716;14.324;2023-01-24T04:05:48;4.80;85.80
27940;DHT22;15275;51.716;14.324;2023-01-24T04:08:15;4.80;85.70
27940;DHT22;15275;51.716;14.324;2023-01-24T04:10:42;4.80;85.70
27940;DHT22;15275;51.716;14.324;2023-01-24T04:13:09;4.80;85.70
27940;DHT22;15275;51.716;14.324;2023-01-24T04:15:37;4.80;85.80
27940;DHT22;15275;51.716;14.324;2023-01-24T04:18:04;4.80;85.80
27940;DHT22;15275;51.716;14.324;2023-01-24T04:20:33;4.80;85.90
27940;DHT22;15275;51.716;14.324;2023-01-24T04:23:02;4.80;85.90
27940;DHT22;15275;51.716;14.324;2023-01-24T04:25:29;4.80;85.70
27940;DHT22;15275;51.716;14.324;2023-01-24T04:27:55;4.80;85.60
27940;DHT22;15275;51.716;14.324;2023-01-24T04:30:22;4.80;85.60
27940;DHT22;15275;51.716;14.324;2023-01-24T04:32:48;4.80;85.50
27940;DHT22;15275;51.716;14.324;2023-01-24T04:35:19;4.80;85.50
27940;DHT22;15275;51.716;14.324;2023-01-24T04:37:46;4.80;85.70
27940;DHT22;15275;51.716;14.324;2023-01-24T04:40:13;4.80;85.80
27940;DHT22;15275;51.716;14.324;2023-01-24T04:42:40;4.70;85.90
27940;DHT22;15275;51.716;14.324;2023-01-24T04:45:07;4.80;85.90
27940;DHT22;15275;51.716;14.324;2023-01-24T04:47:34;4.80;85.80
27940;DHT22;15275;51.716;14.324;2023-01-24T04:50:00;4.80;85.80
27940;DHT22;15275;51.716;14.324;2023-01-24T04:52:26;4.80;85.90
27940;DHT22;15275;51.716;14.324;2023-01-24T04:54:51;4.80;85.90
27940;DHT22;15275;51.716;14.324;2023-01-24T04:57:18;4.80;85.90
27940;DHT22;15275;51.716;14.324;2023-01-24T04:59:44;4.80;85.90
27940;DHT22;15275;51.716;14.324;2023-01-24T05:02:10;4.80;85.80
27940;DHT22;15275;51.716;14.324;2023-01-24T05:04:36;4.80;85.80
27940;DHT22;15275;51.716;14.324;2023-01-24T05:07:02;4.90;85.80
27940;DHT22;15275;51.716;14.324;2023-01-24T05:09:28;4.90;85.70
27940;DHT22;15275;51.716;14.324;2023-01-24T05:11:54;4.80;85.60
27940;DHT22;15275;51.716;14.324;2023-01-24T05:14:20;4.80;85.70
27940;DHT22;15275;51.716;14.324;2023-01-24T05:16:46;4.80;85.60
27940;DHT22;15275;51.716;14.324;2023-01-24T05:19:11;4.80;85.60
27940;DHT22;15275;51.716;14.324;2023-01-24T05:21:37;4.80;85.50
27940;DHT22;15275;51.716;14.324;2023-01-24T05:24:03;4.80;85.60
27940;DHT22;15275;51.716;14.324;2023-01-24T05:26:29;4.80;85.60
27940;DHT22;15275;51.716;14.324;2023-01-24T05:28:55;4.80;85.50
27940;DHT22;15275;51.716;14.324;2023-01-24T05:31:21;4.80;85.50
27940;DHT22;15275;51.716;14.324;2023-01-24T05:33:47;4.80;85.60
27940;DHT22;15275;51.716;14.324;2023-01-24T05:36:21;4.80;85.70
27940;DHT22;15275;51.716;14.324;2023-01-24T05:38:49;4.80;85.70
27940;DHT22;15275;51.716;14.324;2023-01-24T05:41:16;4.80;85.70
27940;DHT22;15275;51.716;14.324;2023-01-24T05:43:47;4.80;85.90
27940;DHT22;15275;51.716;14.324;2023-01-24T05:46:15;4.80;85.90
27940;DHT22;15275;51.716;14.324;2023-01-24T05:48:43;4.80;85.90
27940;DHT22;15275;51.716;14.324;2023-01-24T05:51:11;4.90;86.00
27940;DHT22;15275;51.716;14.324;2023-01-24T05:53:40;4.90;86.00
27940;DHT22;15275;51.716;14.324;2023-01-24T05:56:13;4.90;85.90
27940;DHT22;15275;51.716;14.324;2023-01-24T05:58:41;4.90;86.00
27940;DHT22;15275;51.716;14.324;2023-01-24T06:01:12;4.90;85.90
27940;DHT22;15275;51.716;14.324;2023-01-24T06:03:42;4.90;85.90
27940;DHT22;15275;51.716;14.324;2023-01-24T06:06:10;4.90;85.80
27940;DHT22;15275;51.716;14.324;2023-01-24T06:08:37;4.90;85.80
27940;DHT22;15275;51.716;14.324;2023-01-24T06:11:09;5.00;85.80
27940;DHT22;15275;51.716;14.324;2023-01-24T06:13:58;5.00;85.80
27940;DHT22;15275;51.716;14.324;2023-01-24T06:16:26;5.00;85.90
27940;DHT22;15275;51.716;14.324;2023-01-24T06:18:54;5.00;85.90
27940;DHT22;15275;51.716;14.324;2023-01-24T06:24:04;5.00;85.80
27940;DHT22;15275;51.716;14.324;2023-01-24T06:26:31;5.10;85.70
27940;DHT22;15275;51.716;14.324;2023-01-24T06:28:57;5.10;85.60
27940;DHT22;15275;51.716;14.324;2023-01-24T06:40:20;5.10;85.30
27940;DHT22;15275;51.716;14.324;2023-01-24T06:42:49;5.10;85.50
27940;DHT22;15275;51.716;14.324;2023-01-24T06:45:16;5.10;85.50
27940;DHT22;15275;51.716;14.324;2023-01-24T06:47:42;5.00;85.50
27940;DHT22;15275;51.716;14.324;2023-01-24T06:50:20;5.00;85.40
27940;DHT22;15275;51.716;14.324;2023-01-24T06:52:47;5.00;85.40
27940;DHT22;15275;51.716;14.324;2023-01-24T06:55:15;5.00;85.40
27940;DHT22;15275;51.716;14.324;2023-01-24T06:57:41;5.00;85.50
27940;DHT22;15275;51.716;14.324;2023-01-24T07:00:08;5.00;85.50
27940;DHT22;15275;51.716;14.324;2023-01-24T07:02:34;5.00;85.50
27940;DHT22;15275;51.716;14.324;2023-01-24T07:05:00;5.00;85.50
27940;DHT22;15275;51.716;14.324;2023-01-24T07:07:26;5.00;85.50
27940;DHT22;15275;51.716;14.324;2023-01-24T07:09:52;5.00;85.60
27940;DHT22;15275;51.716;14.324;2023-01-24T07:12:18;5.00;85.60
27940;DHT22;15275;51.716;14.324;2023-01-24T07:14:44;5.00;85.60
27940;DHT22;15275;51.716;14.324;2023-01-24T07:17:10;5.00;85.50
27940;DHT22;15275;51.716;14.324;2023-01-24T07:19:36;5.00;85.50
27940;DHT22;15275;51.716;14.324;2023-01-24T07:22:03;5.00;85.50
27940;DHT22;15275;51.716;14.324;2023-01-24T07:24:29;5.00;85.50
27940;DHT22;15275;51.716;14.324;2023-01-24T07:26:56;5.10;85.60
27940;DHT22;15275;51.716;14.324;2023-01-24T07:29:23;5.00;85.50
27940;DHT22;15275;51.716;14.324;2023-01-24T07:31:50;5.00;85.40
27940;DHT22;15275;51.716;14.324;2023-01-24T07:34:17;5.00;85.40
27940;DHT22;15275;51.716;14.324;2023-01-24T07:36:45;5.00;85.40
27940;DHT22;15275;51.716;14.324;2023-01-24T07:39:11;5.00;85.50
27940;DHT22;15275;51.716;14.324;2023-01-24T07:41:38;5.00;85.40
27940;DHT22;15275;51.716;14.324;2023-01-24T07:44:11;5.00;85.50
27940;DHT22;15275;51.716;14.324;2023-01-24T07:46:37;5.00;85.40
27940;DHT22;15275;51.716;14.324;2023-01-24T07:49:03;5.00;85.80
27940;DHT22;15275;51.716;14.324;2023-01-24T07:51:29;5.00;85.80
27940;DHT22;15275;51.716;14.324;2023-01-24T07:53:55;5.00;85.70
27940;DHT22;15275;51.716;14.324;2023-01-24T07:56:21;5.00;85.70
27940;DHT22;15275;51.716;14.324;2023-01-24T07:58:47;5.00;85.80
27940;DHT22;15275;51.716;14.324;2023-01-24T08:01:23;5.10;85.80
27940;DHT22;15275;51.716;14.324;2023-01-24T08:03:50;5.10;85.70
27940;DHT22;15275;51.716;14.324;2023-01-24T08:06:19;5.10;85.80
27940;DHT22;15275;51.716;14.324;2023-01-24T08:08:45;5.10;85.70
27940;DHT22;15275;51.716;14.324;2023-01-24T08:11:11;5.10;85.70
27940;DHT22;15275;51.716;14.324;2023-01-24T08:13:41;5.10;85.50
27940;DHT22;15275;51.716;14.324;2023-01-24T08:16:07;5.10;85.50
27940;DHT22;15275;51.716;14.324;2023-01-24T08:18:33;5.10;85.40
27940;DHT22;15275;51.716;14.324;2023-01-24T08:21:00;5.10;85.50
27940;DHT22;15275;51.716;14.324;2023-01-24T08:23:26;5.10;85.50
27940;DHT22;15275;51.716;14.324;2023-01-24T08:25:51;5.10;85.50
27940;DHT22;15275;51.716;14.324;2023-01-24T08:28:17;5.10;85.70
27940;DHT22;15275;51.716;14.324;2023-01-24T08:30:43;5.10;85.70
27940;DHT22;15275;51.716;14.324;2023-01-24T08:33:09;5.10;85.70
27940;DHT22;15275;51.716;14.324;2023-01-24T08:35:43;5.10;85.60
27940;DHT22;15275;51.716;14.324;2023-01-24T08:38:10;5.20;85.70
27940;DHT22;15275;51.716;14.324;2023-01-24T08:40:39;5.20;85.70
27940;DHT22;15275;51.716;14.324;2023-01-24T08:43:06;5.20;85.70
27940;DHT22;15275;51.716;14.324;2023-01-24T08:45:32;5.20;85.80
27940;DHT22;15275;51.716;14.324;2023-01-24T08:47:58;5.20;85.90
27940;DHT22;15275;51.716;14.324;2023-01-24T08:50:24;5.20;86.00
27940;DHT22;15275;51.716;14.324;2023-01-24T08:52:54;5.30;85.90
27940;DHT22;15275;51.716;14.324;2023-01-24T08:55:24;5.30;85.90
27940;DHT22;15275;51.716;14.324;2023-01-24T08:57:50;5.30;85.90
27940;DHT22;15275;51.716;14.324;2023-01-24T09:00:16;5.30;85.90
27940;DHT22;15275;51.716;14.324;2023-01-24T09:02:43;5.40;85.90
27940;DHT22;15275;51.716;14.324;2023-01-24T09:05:09;5.40;85.90
27940;DHT22;15275;51.716;14.324;2023-01-24T09:07:35;5.40;85.60
27940;DHT22;15275;51.716;14.324;2023-01-24T09:10:03;5.50;85.60
27940;DHT22;15275;51.716;14.324;2023-01-24T09:12:29;5.50;85.50
27940;DHT22;15275;51.716;14.324;2023-01-24T09:14:57;5.50;85.30
27940;DHT22;15275;51.716;14.324;2023-01-24T09:17:23;5.50;85.30
27940;DHT22;15275;51.716;14.324;2023-01-24T09:19:50;5.50;85.30
27940;DHT22;15275;51.716;14.324;2023-01-24T09:22:16;5.50;85.30
27940;DHT22;15275;51.716;14.324;2023-01-24T09:24:42;5.50;85.50
27940;DHT22;15275;51.716;14.324;2023-01-24T09:27:10;5.50;85.60
27940;DHT22;15275;51.716;14.324;2023-01-24T09:29:36;5.50;85.60
27940;DHT22;15275;51.716;14.324;2023-01-24T09:32:02;5.50;85.60
27940;DHT22;15275;51.716;14.324;2023-01-24T09:34:28;5.50;85.60
27940;DHT22;15275;51.716;14.324;2023-01-24T09:36:54;5.50;85.50
27940;DHT22;15275;51.716;14.324;2023-01-24T09:39:20;5.60;85.50
27940;DHT22;15275;51.716;14.324;2023-01-24T09:47:47;5.60;85.60
27940;DHT22;15275;51.716;14.324;2023-01-24T09:52:45;5.60;85.50
27940;DHT22;15275;51.716;14.324;2023-01-24T09:55:21;5.60;85.50
27940;DHT22;15275;51.716;14.324;2023-01-24T10:00:26;5.60;85.20
27940;DHT22;15275;51.716;14.324;2023-01-24T10:02:58;5.60;85.20
27940;DHT22;15275;51.716;14.324;2023-01-24T10:05:38;5.60;85.20
27940;DHT22;15275;51.716;14.324;2023-01-24T10:08:16;5.60;85.00
27940;DHT22;15275;51.716;14.324;2023-01-24T10:25:33;5.70;85.50
27940;DHT22;15275;51.716;14.324;2023-01-24T10:28:24;5.70;85.30
27940;DHT22;15275;51.716;14.324;2023-01-24T10:34:09;5.80;85.30
27940;DHT22;15275;51.716;14.324;2023-01-24T10:36:53;5.80;85.30
27940;DHT22;15275;51.716;14.324;2023-01-24T10:39:23;5.80;85.30
27940;DHT22;15275;51.716;14.324;2023-01-24T10:41:50;5.80;85.20
27940;DHT22;15275;51.716;14.324;2023-01-24T10:44:25;5.80;85.30
27940;DHT22;15275;51.716;14.324;2023-01-24T10:47:08;5.80;85.40
27940;DHT22;15275;51.716;14.324;2023-01-24T10:49:41;5.90;85.40
27940;DHT22;15275;51.716;14.324;2023-01-24T10:52:20;5.90;85.10
27940;DHT22;15275;51.716;14.324;2023-01-24T10:54:58;5.90;84.90
27940;DHT22;15275;51.716;14.324;2023-01-24T11:02:48;5.80;84.90
27940;DHT22;15275;51.716;14.324;2023-01-24T11:05:16;5.80;84.90
27940;DHT22;15275;51.716;14.324;2023-01-24T11:07:49;5.80;84.90
27940;DHT22;15275;51.716;14.324;2023-01-24T11:10:24;5.80;85.20
27940;DHT22;15275;51.716;14.324;2023-01-24T11:12:55;5.80;83.80
27940;DHT22;15275;51.716;14.324;2023-01-24T11:15:27;5.80;85.00
27940;DHT22;15275;51.716;14.324;2023-01-24T11:18:20;5.80;85.00
27940;DHT22;15275;51.716;14.324;2023-01-24T11:20:46;5.80;85.10
27940;DHT22;15275;51.716;14.324;2023-01-24T11:23:17;5.80;85.00
27940;DHT22;15275;51.716;14.324;2023-01-24T11:25:57;5.80;84.90
27940;DHT22;15275;51.716;14.324;2023-01-24T11:28:34;5.80;83.80
27940;DHT22;15275;51.716;14.324;2023-01-24T11:31:15;5.80;84.90
27940;DHT22;15275;51.716;14.324;2023-01-24T11:39:31;5.80;85.10
27940;DHT22;15275;51.716;14.324;2023-01-24T11:42:14;5.80;85.20
27940;DHT22;15275;51.716;14.324;2023-01-24T11:45:07;5.90;85.30
27940;DHT22;15275;51.716;14.324;2023-01-24T11:51:23;5.90;84.80
27940;DHT22;15275;51.716;14.324;2023-01-24T12:11:38;5.70;84.90
27940;DHT22;15275;51.716;14.324;2023-01-24T12:25:59;5.70;85.50
27940;DHT22;15275;51.716;14.324;2023-01-24T12:28:38;5.70;85.60
27940;DHT22;15275;51.716;14.324;2023-01-24T12:31:26;5.70;85.60
27940;DHT22;15275;51.716;14.324;2023-01-24T12:48:32;5.70;85.20
27940;DHT22;15275;51.716;14.324;2023-01-24T12:59:28;5.70;85.10
27940;DHT22;15275;51.716;14.324;2023-01-24T13:11:22;5.80;85.40
27940;DHT22;15275;51.716;14.324;2023-01-24T13:14:30;5.80;85.40
27940;DHT22;15275;51.716;14.324;2023-01-24T13:19:59;5.80;85.10
27940;DHT22;15275;51.716;14.324;2023-01-24T13:31:46;5.80;85.30
27940;DHT22;15275;51.716;14.324;2023-01-24T13:34:15;5.80;85.50
27940;DHT22;15275;51.716;14.324;2023-01-24T13:36:47;5.80;85.30
27940;DHT22;15275;51.716;14.324;2023-01-24T13:39:38;5.80;85.40
27940;DHT22;15275;51.716;14.324;2023-01-24T13:44:43;5.90;85.40
27940;DHT22;15275;51.716;14.324;2023-01-24T13:54:57;5.90;85.20
27940;DHT22;15275;51.716;14.324;2023-01-24T13:57:36;5.90;85.10
27940;DHT22;15275;51.716;14.324;2023-01-24T14:02:39;5.90;85.20
27940;DHT22;15275;51.716;14.324;2023-01-24T14:05:45;5.90;85.30
27940;DHT22;15275;51.716;14.324;2023-01-24T14:30:23;5.80;85.00
27940;DHT22;15275;51.716;14.324;2023-01-24T14:33:23;5.80;85.10
27940;DHT22;15275;51.716;14.324;2023-01-24T14:36:26;5.80;84.90
27940;DHT22;15275;51.716;14.324;2023-01-24T14:42:11;5.80;85.00
27940;DHT22;15275;51.716;14.324;2023-01-24T14:44:37;5.80;85.10
27940;DHT22;15275;51.716;14.324;2023-01-24T14:47:25;5.80;85.20
27940;DHT22;15275;51.716;14.324;2023-01-24T14:49:56;5.80;85.00
27940;DHT22;15275;51.716;14.324;2023-01-24T14:52:29;5.70;85.10
27940;DHT22;15275;51.716;14.324;2023-01-24T14:55:34;5.70;85.20
27940;DHT22;15275;51.716;14.324;2023-01-24T14:58:24;5.70;84.80
27940;DHT22;15275;51.716;14.324;2023-01-24T15:00:54;5.70;85.40
27940;DHT22;15275;51.716;14.324;2023-01-24T15:03:30;5.70;85.30
27940;DHT22;15275;51.716;14.324;2023-01-24T15:06:03;5.70;85.40
27940;DHT22;15275;51.716;14.324;2023-01-24T15:08:31;5.70;85.40
27940;DHT22;15275;51.716;14.324;2023-01-24T15:11:16;5.70;85.20
27940;DHT22;15275;51.716;14.324;2023-01-24T15:13:50;5.70;85.40
27940;DHT22;15275;51.716;14.324;2023-01-24T15:17:13;5.70;85.40
27940;DHT22;15275;51.716;14.324;2023-01-24T15:19:24;5.70;85.50
27940;DHT22;15275;51.716;14.324;2023-01-24T15:21:53;5.80;85.50
27940;DHT22;15275;51.716;14.324;2023-01-24T15:24:28;5.80;85.40
27940;DHT22;15275;51.716;14.324;2023-01-24T15:26:57;5.80;85.40
27940;DHT22;15275;51.716;14.324;2023-01-24T15:29:40;5.80;85.30
27940;DHT22;15275;51.716;14.324;2023-01-24T15:32:28;5.80;85.20
27940;DHT22;15275;51.716;14.324;2023-01-24T15:38:10;5.80;85.10
27940;DHT22;15275;51.716;14.324;2023-01-24T15:40:59;5.80;85.10
27940;DHT22;15275;51.716;14.324;2023-01-24T15:43:27;5.80;85.40
27940;DHT22;15275;51.716;14.324;2023-01-24T15:46:30;5.70;85.30
27940;DHT22;15275;51.716;14.324;2023-01-24T15:54:39;5.80;85.40
27940;DHT22;15275;51.716;14.324;2023-01-24T15:57:16;5.80;85.50
27940;DHT22;15275;51.716;14.324;2023-01-24T15:59:57;5.80;85.40
27940;DHT22;15275;51.716;14.324;2023-01-24T16:02:25;5.80;85.40
27940;DHT22;15275;51.716;14.324;2023-01-24T16:04:51;5.80;85.30
27940;DHT22;15275;51.716;14.324;2023-01-24T16:07:18;5.80;85.20
27940;DHT22;15275;51.716;14.324;2023-01-24T16:09:45;5.80;85.20
27940;DHT22;15275;51.716;14.324;2023-01-24T16:12:15;5.80;85.30
27940;DHT22;15275;51.716;14.324;2023-01-24T16:14:48;5.80;85.30
27940;DHT22;15275;51.716;14.324;2023-01-24T16:17:18;5.80;85.40
27940;DHT22;15275;51.716;14.324;2023-01-24T16:19:45;5.80;85.30
27940;DHT22;15275;51.716;14.324;2023-01-24T16:22:11;5.80;85.20
27940;DHT22;15275;51.716;14.324;2023-01-24T16:24:37;5.80;85.30
27940;DHT22;15275;51.716;14.324;2023-01-24T16:27:04;5.80;85.30
27940;DHT22;15275;51.716;14.324;2023-01-24T16:29:30;5.80;85.20
27940;DHT22;15275;51.716;14.324;2023-01-24T16:31:58;5.80;85.00
27940;DHT22;15275;51.716;14.324;2023-01-24T16:34:24;5.80;85.10
27940;DHT22;15275;51.716;14.324;2023-01-24T16:36:50;5.80;85.10
27940;DHT22;15275;51.716;14.324;2023-01-24T16:39:21;5.80;85.20
27940;DHT22;15275;51.716;14.324;2023-01-24T16:41:48;5.80;85.30
27940;DHT22;15275;51.716;14.324;2023-01-24T16:44:15;5.80;85.20
27940;DHT22;15275;51.716;14.324;2023-01-24T16:46:51;5.70;85.20
27940;DHT22;15275;51.716;14.324;2023-01-24T16:49:17;5.70;85.20
27940;DHT22;15275;51.716;14.324;2023-01-24T16:51:43;5.70;85.20
27940;DHT22;15275;51.716;14.324;2023-01-24T16:54:10;5.70;85.50
27940;DHT22;15275;51.716;14.324;2023-01-24T16:56:36;5.70;85.40
27940;DHT22;15275;51.716;14.324;2023-01-24T16:59:02;5.70;85.40
27940;DHT22;15275;51.716;14.324;2023-01-24T17:01:28;5.70;85.30
27940;DHT22;15275;51.716;14.324;2023-01-24T17:03:54;5.70;85.20
27940;DHT22;15275;51.716;14.324;2023-01-24T17:06:20;5.70;85.30
27940;DHT22;15275;51.716;14.324;2023-01-24T17:08:50;5.70;85.40
27940;DHT22;15275;51.716;14.324;2023-01-24T17:11:17;5.70;85.40
27940;DHT22;15275;51.716;14.324;2023-01-24T17:13:45;5.80;85.40
27940;DHT22;15275;51.716;14.324;2023-01-24T17:16:12;5.80;85.40
27940;DHT22;15275;51.716;14.324;2023-01-24T17:18:39;5.80;85.40
27940;DHT22;15275;51.716;14.324;2023-01-24T17:21:07;5.80;85.40
27940;DHT22;15275;51.716;14.324;2023-01-24T17:23:36;5.80;85.40
27940;DHT22;15275;51.716;14.324;2023-01-24T17:26:09;5.80;85.40
27940;DHT22;15275;51.716;14.324;2023-01-24T17:28:42;5.80;85.50
27940;DHT22;15275;51.716;14.324;2023-01-24T17:31:14;5.80;85.40
27940;DHT22;15275;51.716;14.324;2023-01-24T17:33:41;5.90;85.40
27940;DHT22;15275;51.716;14.324;2023-01-24T17:36:08;5.80;85.40
27940;DHT22;15275;51.716;14.324;2023-01-24T17:38:35;5.90;85.30
27940;DHT22;15275;51.716;14.324;2023-01-24T17:41:01;5.90;85.30
27940;DHT22;15275;51.716;14.324;2023-01-24T17:43:29;5.90;85.30
27940;DHT22;15275;51.716;14.324;2023-01-24T17:45:57;5.90;85.20
27940;DHT22;15275;51.716;14.324;2023-01-24T17:48:25;5.90;85.20
27940;DHT22;15275;51.716;14.324;2023-01-24T17:50:52;5.90;85.20
27940;DHT22;15275;51.716;14.324;2023-01-24T17:53:19;5.90;85.10
27940;DHT22;15275;51.716;14.324;2023-01-24T17:55:45;5.80;85.20
27940;DHT22;15275;51.716;14.324;2023-01-24T17:58:12;5.90;85.20
27940;DHT22;15275;51.716;14.324;2023-01-24T18:00:38;5.90;85.30
27940;DHT22;15275;51.716;14.324;2023-01-24T18:03:05;5.90;85.20
27940;DHT22;15275;51.716;14.324;2023-01-24T18:05:37;5.90;85.20
27940;DHT22;15275;51.716;14.324;2023-01-24T18:08:04;5.90;85.20
27940;DHT22;15275;51.716;14.324;2023-01-24T18:10:30;5.90;85.20
27940;DHT22;15275;51.716;14.324;2023-01-24T18:12:56;5.90;85.20
27940;DHT22;15275;51.716;14.324;2023-01-24T18:15:22;5.90;85.00
27940;DHT22;15275;51.716;14.324;2023-01-24T18:17:48;5.90;85.00
27940;DHT22;15275;51.716;14.324;2023-01-24T18:20:14;5.90;85.10
27940;DHT22;15275;51.716;14.324;2023-01-24T18:22:42;5.90;84.90
27940;DHT22;15275;51.716;14.324;2023-01-24T18:25:11;5.90;85.00
27940;DHT22;15275;51.716;14.324;2023-01-24T18:27:38;5.90;85.20
27940;DHT22;15275;51.716;14.324;2023-01-24T18:30:05;5.80;85.10
27940;DHT22;15275;51.716;14.324;2023-01-24T18:32:32;5.80;85.10
27940;DHT22;15275;51.716;14.324;2023-01-24T18:34:58;5.80;85.20
27940;DHT22;15275;51.716;14.324;2023-01-24T18:37:24;5.80;85.20
27940;DHT22;15275;51.716;14.324;2023-01-24T18:39:50;5.80;85.10
27940;DHT22;15275;51.716;14.324;2023-01-24T18:42:15;5.80;85.10
27940;DHT22;15275;51.716;14.324;2023-01-24T18:44:41;5.80;85.00
27940;DHT22;15275;51.716;14.324;2023-01-24T18:47:07;5.80;85.10
27940;DHT22;15275;51.716;14.324;2023-01-24T18:49:33;5.80;85.10
27940;DHT22;15275;51.716;14.324;2023-01-24T18:51:59;5.80;85.10